sensor_id;sensor_type;location;lat;lon;timestamp;P1;durP1;ratioP1;P2;durP2;ratioP2
2177;SDS011;1095;50.992;6.798;2023-12-04T00:02:13;23.08;;;13.02;;
2177;SDS011;1095;50.992;6.798;2023-12-04T00:04:41;27.20;;;15.20;;
2177;SDS011;1095;50.992;6.798;2023-12-04T00:07:08;23.50;;;13.75;;
2177;SDS011;1095;50.992;6.798;2023-12-04T00:09:35;26.63;;;14.15;;
2177;SDS011;1095;50.992;6.798;2023-12-04T00:12:01;24.13;;;14.52;;
2177;SDS011;1095;50.992;6.798;2023-12-04T00:14:28;25.88;;;14.35;;
2177;SDS011;1095;50.992;6.798;2023-12-04T00:16:55;26.88;;;14.13;;
2177;SDS011;1095;50.992;6.798;2023-12-04T00:19:21;23.02;;;13.73;;
2177;SDS011;1095;50.992;6.798;2023-12-04T00:21:49;22.48;;;13.68;;
2177;SDS011;1095;50.992;6.798;2023-12-04T00:24:16;26.48;;;13.80;;
2177;SDS011;1095;50.992;6.798;2023-12-04T00:26:42;24.52;;;14.20;;
2177;SDS011;1095;50.992;6.798;2023-12-04T00:29:09;24.55;;;13.93;;
2177;SDS011;1095;50.992;6.798;2023-12-04T00:31:36;28.40;;;14.27;;
2177;SDS011;1095;50.992;6.798;2023-12-04T00:34:03;24.98;;;14.18;;
2177;SDS011;1095;50.992;6.798;2023-12-04T00:36:29;24.02;;;13.43;;
2177;SDS011;1095;50.992;6.798;2023-12-04T00:38:57;21.80;;;13.25;;
2177;SDS011;1095;50.992;6.798;2023-12-04T00:41:24;25.90;;;14.07;;
2177;SDS011;1095;50.992;6.798;2023-12-04T00:43:50;22.67;;;13.32;;
2177;SDS011;1095;50.992;6.798;2023-12-04T00:46:17;23.27;;;13.43;;
2177;SDS011;1095;50.992;6.798;2023-12-04T00:48:46;24.88;;;13.30;;
2177;SDS011;1095;50.992;6.798;2023-12-04T00:51:13;25.30;;;14.40;;
2177;SDS011;1095;50.992;6.798;2023-12-04T00:53:40;24.48;;;12.82;;
2177;SDS011;1095;50.992;6.798;2023-12-04T00:56:08;23.30;;;13.40;;
2177;SDS011;1095;50.992;6.798;2023-12-04T00:58:36;23.88;;;13.57;;
2177;SDS011;1095;50.992;6.798;2023-12-04T01:01:02;27.25;;;13.02;;
2177;SDS011;1095;50.992;6.798;2023-12-04T01:03:29;22.27;;;12.68;;
2177;SDS011;1095;50.992;6.798;2023-12-04T01:05:58;23.10;;;13.98;;
2177;SDS011;1095;50.992;6.798;2023-12-04T01:08:24;23.27;;;13.32;;
2177;SDS011;1095;50.992;6.798;2023-12-04T01:10:51;23.52;;;12.90;;
2177;SDS011;1095;50.992;6.798;2023-12-04T01:13:19;22.50;;;13.10;;
2177;SDS011;1095;50.992;6.798;2023-12-04T01:15:45;22.25;;;13.02;;
2177;SDS011;1095;50.992;6.798;2023-12-04T01:18:13;25.95;;;13.85;;
2177;SDS011;1095;50.992;6.798;2023-12-04T01:20:40;22.60;;;13.20;;
2177;SDS011;1095;50.992;6.798;2023-12-04T01:23:07;25.58;;;14.15;;
2177;SDS011;1095;50.992;6.798;2023-12-04T01:25:33;22.88;;;13.07;;
2177;SDS011;1095;50.992;6.798;2023-12-04T01:28:00;27.40;;;13.98;;
2177;SDS011;1095;50.992;6.798;2023-12-04T01:30:28;23.45;;;13.25;;
2177;SDS011;1095;50.992;6.798;2023-12-04T01:32:54;20.48;;;13.52;;
2177;SDS011;1095;50.992;6.798;2023-12-04T01:35:21;22.02;;;12.35;;
2177;SDS011;1095;50.992;6.798;2023-12-04T01:37:48;25.40;;;13.20;;
2177;SDS011;1095;50.992;6.798;2023-12-04T01:40:15;20.15;;;12.52;;
2177;SDS011;1095;50.992;6.798;2023-12-04T01:42:42;24.42;;;13.52;;
2177;SDS011;1095;50.992;6.798;2023-12-04T01:45:09;21.33;;;12.80;;
2177;SDS011;1095;50.992;6.798;2023-12-04T01:47:37;20.48;;;13.15;;
2177;SDS011;1095;50.992;6.798;2023-12-04T01:50:04;20.02;;;12.65;;
2177;SDS011;1095;50.992;6.798;2023-12-04T01:52:32;22.20;;;12.85;;
2177;SDS011;1095;50.992;6.798;2023-12-04T01:55:01;21.48;;;13.00;;
2177;SDS011;1095;50.992;6.798;2023-12-04T01:57:28;23.92;;;13.10;;
2177;SDS011;1095;50.992;6.798;2023-12-04T01:59:55;22.25;;;13.43;;
2177;SDS011;1095;50.992;6.798;2023-12-04T02:02:22;23.17;;;13.15;;
2177;SDS011;1095;50.992;6.798;2023-12-04T02:04:50;21.65;;;12.25;;
2177;SDS011;1095;50.992;6.798;2023-12-04T02:07:16;21.25;;;11.85;;
2177;SDS011;1095;50.992;6.798;2023-12-04T02:09:43;23.73;;;12.82;;
2177;SDS011;1095;50.992;6.798;2023-12-04T02:12:10;20.33;;;12.73;;
2177;SDS011;1095;50.992;6.798;2023-12-04T02:14:37;22.58;;;13.05;;
2177;SDS011;1095;50.992;6.798;2023-12-04T02:17:03;19.80;;;12.48;;
2177;SDS011;1095;50.992;6.798;2023-12-04T02:19:35;22.65;;;13.80;;
2177;SDS011;1095;50.992;6.798;2023-12-04T02:22:04;21.13;;;12.68;;
2177;SDS011;1095;50.992;6.798;2023-12-04T02:24:31;22.23;;;13.18;;
2177;SDS011;1095;50.992;6.798;2023-12-04T02:27:02;20.20;;;11.90;;
2177;SDS011;1095;50.992;6.798;2023-12-04T02:29:37;25.63;;;13.23;;
2177;SDS011;1095;50.992;6.798;2023-12-04T02:34:37;21.15;;;12.60;;
2177;SDS011;1095;50.992;6.798;2023-12-04T02:37:06;21.45;;;12.68;;
2177;SDS011;1095;50.992;6.798;2023-12-04T02:39:37;21.63;;;12.85;;
2177;SDS011;1095;50.992;6.798;2023-12-04T02:42:04;21.98;;;12.43;;
2177;SDS011;1095;50.992;6.798;2023-12-04T02:44:31;20.42;;;12.25;;
2177;SDS011;1095;50.992;6.798;2023-12-04T02:46:58;18.48;;;12.07;;
2177;SDS011;1095;50.992;6.798;2023-12-04T02:49:25;21.90;;;12.35;;
2177;SDS011;1095;50.992;6.798;2023-12-04T02:51:51;24.70;;;13.18;;
2177;SDS011;1095;50.992;6.798;2023-12-04T02:54:18;21.70;;;12.02;;
2177;SDS011;1095;50.992;6.798;2023-12-04T02:56:46;22.17;;;12.48;;
2177;SDS011;1095;50.992;6.798;2023-12-04T02:59:12;19.00;;;11.73;;
2177;SDS011;1095;50.992;6.798;2023-12-04T03:01:39;19.92;;;11.77;;
2177;SDS011;1095;50.992;6.798;2023-12-04T03:04:05;20.80;;;13.15;;
2177;SDS011;1095;50.992;6.798;2023-12-04T03:06:32;22.83;;;13.68;;
2177;SDS011;1095;50.992;6.798;2023-12-04T03:08:59;22.63;;;12.43;;
2177;SDS011;1095;50.992;6.798;2023-12-04T03:11:25;21.27;;;12.48;;
2177;SDS011;1095;50.992;6.798;2023-12-04T03:13:53;23.10;;;12.77;;
2177;SDS011;1095;50.992;6.798;2023-12-04T03:16:20;18.20;;;11.45;;
2177;SDS011;1095;50.992;6.798;2023-12-04T03:18:47;21.75;;;12.43;;
2177;SDS011;1095;50.992;6.798;2023-12-04T03:21:13;19.73;;;12.27;;
2177;SDS011;1095;50.992;6.798;2023-12-04T03:23:40;20.42;;;11.55;;
2177;SDS011;1095;50.992;6.798;2023-12-04T03:26:07;22.13;;;12.07;;
2177;SDS011;1095;50.992;6.798;2023-12-04T03:28:33;16.65;;;10.65;;
2177;SDS011;1095;50.992;6.798;2023-12-04T03:31:01;18.25;;;11.55;;
2177;SDS011;1095;50.992;6.798;2023-12-04T03:33:28;20.83;;;11.98;;
2177;SDS011;1095;50.992;6.798;2023-12-04T03:35:55;19.35;;;11.93;;
2177;SDS011;1095;50.992;6.798;2023-12-04T03:38:21;19.23;;;11.82;;
2177;SDS011;1095;50.992;6.798;2023-12-04T03:40:48;21.13;;;11.73;;
2177;SDS011;1095;50.992;6.798;2023-12-04T03:43:14;19.23;;;11.73;;
2177;SDS011;1095;50.992;6.798;2023-12-04T03:45:41;21.15;;;12.15;;
2177;SDS011;1095;50.992;6.798;2023-12-04T03:48:09;19.90;;;12.02;;
2177;SDS011;1095;50.992;6.798;2023-12-04T03:50:35;19.52;;;11.45;;
2177;SDS011;1095;50.992;6.798;2023-12-04T03:53:02;21.23;;;12.45;;
2177;SDS011;1095;50.992;6.798;2023-12-04T03:55:29;22.52;;;11.32;;
2177;SDS011;1095;50.992;6.798;2023-12-04T03:57:56;19.75;;;11.77;;
2177;SDS011;1095;50.992;6.798;2023-12-04T04:00:23;22.63;;;12.10;;
2177;SDS011;1095;50.992;6.798;2023-12-04T04:02:49;21.65;;;12.73;;
2177;SDS011;1095;50.992;6.798;2023-12-04T04:05:17;20.38;;;12.25;;
2177;SDS011;1095;50.992;6.798;2023-12-04T04:07:44;19.98;;;11.70;;
2177;SDS011;1095;50.992;6.798;2023-12-04T04:10:11;22.58;;;12.50;;
2177;SDS011;1095;50.992;6.798;2023-12-04T04:12:37;20.55;;;11.73;;
2177;SDS011;1095;50.992;6.798;2023-12-04T04:15:04;18.13;;;11.55;;
2177;SDS011;1095;50.992;6.798;2023-12-04T04:17:32;20.92;;;12.43;;
2177;SDS011;1095;50.992;6.798;2023-12-04T04:19:58;20.27;;;11.35;;
2177;SDS011;1095;50.992;6.798;2023-12-04T04:22:26;18.33;;;11.75;;
2177;SDS011;1095;50.992;6.798;2023-12-04T04:24:54;22.35;;;12.15;;
2177;SDS011;1095;50.992;6.798;2023-12-04T04:27:21;19.67;;;12.40;;
2177;SDS011;1095;50.992;6.798;2023-12-04T04:29:48;19.25;;;11.77;;
2177;SDS011;1095;50.992;6.798;2023-12-04T04:32:14;20.25;;;12.07;;
2177;SDS011;1095;50.992;6.798;2023-12-04T04:34:41;23.17;;;13.32;;
2177;SDS011;1095;50.992;6.798;2023-12-04T04:37:08;19.40;;;11.52;;
2177;SDS011;1095;50.992;6.798;2023-12-04T04:39:39;21.13;;;12.48;;
2177;SDS011;1095;50.992;6.798;2023-12-04T04:42:08;20.25;;;11.02;;
2177;SDS011;1095;50.992;6.798;2023-12-04T04:44:35;20.70;;;12.15;;
2177;SDS011;1095;50.992;6.798;2023-12-04T04:47:02;22.67;;;12.55;;
2177;SDS011;1095;50.992;6.798;2023-12-04T04:49:29;19.40;;;12.27;;
2177;SDS011;1095;50.992;6.798;2023-12-04T04:51:55;20.80;;;12.45;;
2177;SDS011;1095;50.992;6.798;2023-12-04T04:54:22;23.42;;;12.85;;
2177;SDS011;1095;50.992;6.798;2023-12-04T04:56:50;22.08;;;12.05;;
2177;SDS011;1095;50.992;6.798;2023-12-04T04:59:23;20.92;;;13.27;;
2177;SDS011;1095;50.992;6.798;2023-12-04T05:01:49;22.25;;;12.10;;
2177;SDS011;1095;50.992;6.798;2023-12-04T05:04:16;22.27;;;12.63;;
2177;SDS011;1095;50.992;6.798;2023-12-04T05:06:42;21.98;;;12.80;;
2177;SDS011;1095;50.992;6.798;2023-12-04T05:09:09;21.75;;;11.90;;
2177;SDS011;1095;50.992;6.798;2023-12-04T05:11:35;19.92;;;12.65;;
2177;SDS011;1095;50.992;6.798;2023-12-04T05:14:03;20.48;;;13.45;;
2177;SDS011;1095;50.992;6.798;2023-12-04T05:16:30;19.95;;;12.98;;
2177;SDS011;1095;50.992;6.798;2023-12-04T05:19:00;21.85;;;12.98;;
2177;SDS011;1095;50.992;6.798;2023-12-04T05:21:26;24.27;;;14.05;;
2177;SDS011;1095;50.992;6.798;2023-12-04T05:23:53;23.05;;;13.32;;
2177;SDS011;1095;50.992;6.798;2023-12-04T05:26:23;22.20;;;13.50;;
2177;SDS011;1095;50.992;6.798;2023-12-04T05:28:49;22.15;;;13.27;;
2177;SDS011;1095;50.992;6.798;2023-12-04T05:31:17;22.75;;;13.85;;
2177;SDS011;1095;50.992;6.798;2023-12-04T05:33:44;24.45;;;13.77;;
2177;SDS011;1095;50.992;6.798;2023-12-04T05:36:11;24.75;;;14.07;;
2177;SDS011;1095;50.992;6.798;2023-12-04T05:38:38;23.35;;;14.05;;
2177;SDS011;1095;50.992;6.798;2023-12-04T05:41:06;25.50;;;14.98;;
2177;SDS011;1095;50.992;6.798;2023-12-04T05:43:33;21.85;;;13.65;;
2177;SDS011;1095;50.992;6.798;2023-12-04T05:45:59;20.48;;;13.07;;
2177;SDS011;1095;50.992;6.798;2023-12-04T05:48:28;24.80;;;13.65;;
2177;SDS011;1095;50.992;6.798;2023-12-04T05:50:54;24.42;;;13.93;;
2177;SDS011;1095;50.992;6.798;2023-12-04T05:53:21;23.70;;;13.60;;
2177;SDS011;1095;50.992;6.798;2023-12-04T05:55:48;23.58;;;14.88;;
2177;SDS011;1095;50.992;6.798;2023-12-04T05:58:14;27.77;;;14.50;;
2177;SDS011;1095;50.992;6.798;2023-12-04T06:00:41;24.25;;;13.38;;
2177;SDS011;1095;50.992;6.798;2023-12-04T06:03:07;24.00;;;14.85;;
2177;SDS011;1095;50.992;6.798;2023-12-04T06:05:35;25.92;;;14.40;;
2177;SDS011;1095;50.992;6.798;2023-12-04T06:08:02;22.92;;;13.50;;
2177;SDS011;1095;50.992;6.798;2023-12-04T06:10:32;24.27;;;14.60;;
2177;SDS011;1095;50.992;6.798;2023-12-04T06:13:00;24.65;;;14.95;;
2177;SDS011;1095;50.992;6.798;2023-12-04T06:15:29;25.55;;;14.43;;
2177;SDS011;1095;50.992;6.798;2023-12-04T06:17:56;26.02;;;15.02;;
2177;SDS011;1095;50.992;6.798;2023-12-04T06:20:23;24.00;;;14.02;;
2177;SDS011;1095;50.992;6.798;2023-12-04T06:22:51;23.13;;;14.32;;
2177;SDS011;1095;50.992;6.798;2023-12-04T06:25:18;24.50;;;14.52;;
2177;SDS011;1095;50.992;6.798;2023-12-04T06:27:46;25.38;;;14.65;;
2177;SDS011;1095;50.992;6.798;2023-12-04T06:30:13;23.77;;;14.48;;
2177;SDS011;1095;50.992;6.798;2023-12-04T06:32:40;24.67;;;14.73;;
2177;SDS011;1095;50.992;6.798;2023-12-04T06:35:08;23.98;;;14.50;;
2177;SDS011;1095;50.992;6.798;2023-12-04T06:37:36;25.25;;;14.93;;
2177;SDS011;1095;50.992;6.798;2023-12-04T06:40:07;25.00;;;14.60;;
2177;SDS011;1095;50.992;6.798;2023-12-04T06:42:36;24.63;;;15.10;;
2177;SDS011;1095;50.992;6.798;2023-12-04T06:45:03;22.08;;;14.70;;
2177;SDS011;1095;50.992;6.798;2023-12-04T06:47:31;23.80;;;14.13;;
2177;SDS011;1095;50.992;6.798;2023-12-04T06:50:00;27.40;;;14.90;;
2177;SDS011;1095;50.992;6.798;2023-12-04T06:52:27;27.95;;;15.27;;
2177;SDS011;1095;50.992;6.798;2023-12-04T06:54:54;26.13;;;14.23;;
2177;SDS011;1095;50.992;6.798;2023-12-04T06:57:22;24.88;;;14.32;;
2177;SDS011;1095;50.992;6.798;2023-12-04T06:59:48;25.60;;;15.63;;
2177;SDS011;1095;50.992;6.798;2023-12-04T07:02:15;29.83;;;15.10;;
2177;SDS011;1095;50.992;6.798;2023-12-04T07:04:41;25.98;;;15.20;;
2177;SDS011;1095;50.992;6.798;2023-12-04T07:07:08;26.00;;;15.50;;
2177;SDS011;1095;50.992;6.798;2023-12-04T07:09:34;25.58;;;15.35;;
2177;SDS011;1095;50.992;6.798;2023-12-04T07:12:01;25.83;;;14.45;;
2177;SDS011;1095;50.992;6.798;2023-12-04T07:14:30;26.38;;;15.65;;
2177;SDS011;1095;50.992;6.798;2023-12-04T07:16:56;25.85;;;15.43;;
2177;SDS011;1095;50.992;6.798;2023-12-04T07:19:23;26.30;;;14.75;;
2177;SDS011;1095;50.992;6.798;2023-12-04T07:21:50;29.13;;;16.30;;
2177;SDS011;1095;50.992;6.798;2023-12-04T07:24:17;28.33;;;15.70;;
2177;SDS011;1095;50.992;6.798;2023-12-04T07:26:43;23.85;;;15.25;;
2177;SDS011;1095;50.992;6.798;2023-12-04T07:29:10;27.75;;;15.73;;
2177;SDS011;1095;50.992;6.798;2023-12-04T07:31:38;25.85;;;15.07;;
2177;SDS011;1095;50.992;6.798;2023-12-04T07:34:05;26.88;;;15.95;;
2177;SDS011;1095;50.992;6.798;2023-12-04T07:36:31;23.92;;;14.73;;
2177;SDS011;1095;50.992;6.798;2023-12-04T07:38:58;21.92;;;14.27;;
2177;SDS011;1095;50.992;6.798;2023-12-04T07:41:24;25.73;;;14.93;;
2177;SDS011;1095;50.992;6.798;2023-12-04T07:43:51;23.23;;;14.20;;
2177;SDS011;1095;50.992;6.798;2023-12-04T07:46:19;24.02;;;14.52;;
2177;SDS011;1095;50.992;6.798;2023-12-04T07:48:50;25.55;;;14.45;;
2177;SDS011;1095;50.992;6.798;2023-12-04T07:51:17;26.77;;;14.82;;
2177;SDS011;1095;50.992;6.798;2023-12-04T07:53:44;26.08;;;15.40;;
2177;SDS011;1095;50.992;6.798;2023-12-04T07:56:22;23.40;;;15.27;;
2177;SDS011;1095;50.992;6.798;2023-12-04T07:58:57;26.30;;;14.95;;
2177;SDS011;1095;50.992;6.798;2023-12-04T08:01:24;25.88;;;14.60;;
2177;SDS011;1095;50.992;6.798;2023-12-04T08:03:52;25.40;;;14.85;;
2177;SDS011;1095;50.992;6.798;2023-12-04T08:06:18;26.83;;;15.52;;
2177;SDS011;1095;50.992;6.798;2023-12-04T08:08:45;23.35;;;14.75;;
2177;SDS011;1095;50.992;6.798;2023-12-04T08:11:11;24.58;;;14.88;;
2177;SDS011;1095;50.992;6.798;2023-12-04T08:13:38;22.90;;;14.77;;
2177;SDS011;1095;50.992;6.798;2023-12-04T08:16:12;24.08;;;14.80;;
2177;SDS011;1095;50.992;6.798;2023-12-04T08:18:40;24.55;;;14.52;;
2177;SDS011;1095;50.992;6.798;2023-12-04T08:21:08;22.40;;;14.27;;
2177;SDS011;1095;50.992;6.798;2023-12-04T08:23:35;28.30;;;15.50;;
2177;SDS011;1095;50.992;6.798;2023-12-04T08:26:01;22.35;;;14.43;;
2177;SDS011;1095;50.992;6.798;2023-12-04T08:28:29;23.52;;;14.32;;
2177;SDS011;1095;50.992;6.798;2023-12-04T08:30:56;25.65;;;14.45;;
2177;SDS011;1095;50.992;6.798;2023-12-04T08:33:22;21.85;;;14.02;;
2177;SDS011;1095;50.992;6.798;2023-12-04T08:35:49;27.50;;;14.40;;
2177;SDS011;1095;50.992;6.798;2023-12-04T08:38:17;27.20;;;15.40;;
2177;SDS011;1095;50.992;6.798;2023-12-04T08:40:44;25.27;;;14.50;;
2177;SDS011;1095;50.992;6.798;2023-12-04T08:43:10;24.38;;;14.70;;
2177;SDS011;1095;50.992;6.798;2023-12-04T08:45:37;24.92;;;14.68;;
2177;SDS011;1095;50.992;6.798;2023-12-04T08:48:04;25.00;;;15.48;;
2177;SDS011;1095;50.992;6.798;2023-12-04T08:50:31;22.17;;;14.50;;
2177;SDS011;1095;50.992;6.798;2023-12-04T08:52:57;24.33;;;14.95;;
2177;SDS011;1095;50.992;6.798;2023-12-04T08:55:25;24.30;;;14.23;;
2177;SDS011;1095;50.992;6.798;2023-12-04T08:57:52;23.50;;;13.93;;
2177;SDS011;1095;50.992;6.798;2023-12-04T09:00:19;25.70;;;14.85;;
2177;SDS011;1095;50.992;6.798;2023-12-04T09:02:47;23.65;;;14.45;;
2177;SDS011;1095;50.992;6.798;2023-12-04T09:05:14;21.83;;;13.80;;
2177;SDS011;1095;50.992;6.798;2023-12-04T09:07:40;23.58;;;14.30;;
2177;SDS011;1095;50.992;6.798;2023-12-04T09:10:07;24.20;;;13.45;;
2177;SDS011;1095;50.992;6.798;2023-12-04T09:12:35;20.80;;;12.70;;
2177;SDS011;1095;50.992;6.798;2023-12-04T09:15:03;20.73;;;12.88;;
2177;SDS011;1095;50.992;6.798;2023-12-04T09:17:31;21.73;;;13.80;;
2177;SDS011;1095;50.992;6.798;2023-12-04T09:19:57;21.15;;;12.98;;
2177;SDS011;1095;50.992;6.798;2023-12-04T09:22:24;24.55;;;13.43;;
2177;SDS011;1095;50.992;6.798;2023-12-04T09:24:51;24.10;;;13.90;;
2177;SDS011;1095;50.992;6.798;2023-12-04T09:27:17;22.27;;;13.50;;
2177;SDS011;1095;50.992;6.798;2023-12-04T09:29:45;22.80;;;13.88;;
2177;SDS011;1095;50.992;6.798;2023-12-04T09:32:12;21.88;;;12.93;;
2177;SDS011;1095;50.992;6.798;2023-12-04T09:34:38;23.92;;;13.80;;
2177;SDS011;1095;50.992;6.798;2023-12-04T09:37:05;22.13;;;13.10;;
2177;SDS011;1095;50.992;6.798;2023-12-04T09:39:32;22.33;;;13.80;;
2177;SDS011;1095;50.992;6.798;2023-12-04T09:41:59;22.58;;;13.65;;
2177;SDS011;1095;50.992;6.798;2023-12-04T09:44:28;20.67;;;13.13;;
2177;SDS011;1095;50.992;6.798;2023-12-04T09:46:57;19.77;;;12.70;;
2177;SDS011;1095;50.992;6.798;2023-12-04T09:49:26;23.25;;;13.27;;
2177;SDS011;1095;50.992;6.798;2023-12-04T09:51:55;20.60;;;12.30;;
2177;SDS011;1095;50.992;6.798;2023-12-04T09:54:24;22.05;;;13.60;;
2177;SDS011;1095;50.992;6.798;2023-12-04T09:56:51;19.58;;;12.13;;
2177;SDS011;1095;50.992;6.798;2023-12-04T09:59:18;22.48;;;12.60;;
2177;SDS011;1095;50.992;6.798;2023-12-04T10:01:50;23.77;;;13.77;;
2177;SDS011;1095;50.992;6.798;2023-12-04T10:04:19;21.02;;;13.35;;
2177;SDS011;1095;50.992;6.798;2023-12-04T10:06:46;20.80;;;12.05;;
2177;SDS011;1095;50.992;6.798;2023-12-04T10:09:16;22.95;;;12.38;;
2177;SDS011;1095;50.992;6.798;2023-12-04T10:11:44;21.15;;;13.25;;
2177;SDS011;1095;50.992;6.798;2023-12-04T10:14:14;23.00;;;12.75;;
2177;SDS011;1095;50.992;6.798;2023-12-04T10:16:42;19.90;;;12.63;;
2177;SDS011;1095;50.992;6.798;2023-12-04T10:19:15;21.45;;;13.48;;
2177;SDS011;1095;50.992;6.798;2023-12-04T10:21:45;21.23;;;12.75;;
2177;SDS011;1095;50.992;6.798;2023-12-04T10:24:12;24.88;;;12.63;;
2177;SDS011;1095;50.992;6.798;2023-12-04T10:26:54;21.13;;;13.18;;
2177;SDS011;1095;50.992;6.798;2023-12-04T10:29:29;21.65;;;13.75;;
2177;SDS011;1095;50.992;6.798;2023-12-04T10:32:10;21.73;;;12.52;;
2177;SDS011;1095;50.992;6.798;2023-12-04T10:34:42;19.23;;;11.70;;
2177;SDS011;1095;50.992;6.798;2023-12-04T10:37:10;19.00;;;12.32;;
2177;SDS011;1095;50.992;6.798;2023-12-04T10:39:44;23.38;;;11.98;;
2177;SDS011;1095;50.992;6.798;2023-12-04T10:42:22;20.40;;;12.27;;
2177;SDS011;1095;50.992;6.798;2023-12-04T10:44:50;20.40;;;12.30;;
2177;SDS011;1095;50.992;6.798;2023-12-04T10:47:17;22.02;;;12.27;;
2177;SDS011;1095;50.992;6.798;2023-12-04T10:49:46;23.05;;;12.32;;
2177;SDS011;1095;50.992;6.798;2023-12-04T10:52:17;20.98;;;12.90;;
2177;SDS011;1095;50.992;6.798;2023-12-04T10:54:44;23.55;;;12.93;;
2177;SDS011;1095;50.992;6.798;2023-12-04T10:57:11;20.05;;;12.27;;
2177;SDS011;1095;50.992;6.798;2023-12-04T10:59:42;22.85;;;13.02;;
2177;SDS011;1095;50.992;6.798;2023-12-04T11:02:11;23.77;;;12.75;;
2177;SDS011;1095;50.992;6.798;2023-12-04T11:04:45;21.48;;;12.70;;
2177;SDS011;1095;50.992;6.798;2023-12-04T11:07:17;20.88;;;12.40;;
2177;SDS011;1095;50.992;6.798;2023-12-04T11:09:45;24.92;;;14.23;;
2177;SDS011;1095;50.992;6.798;2023-12-04T11:12:16;22.30;;;13.90;;
2177;SDS011;1095;50.992;6.798;2023-12-04T11:14:49;22.45;;;12.55;;
2177;SDS011;1095;50.992;6.798;2023-12-04T11:17:27;22.33;;;13.15;;
2177;SDS011;1095;50.992;6.798;2023-12-04T11:20:02;21.23;;;13.18;;
2177;SDS011;1095;50.992;6.798;2023-12-04T11:22:35;21.98;;;13.50;;
2177;SDS011;1095;50.992;6.798;2023-12-04T11:25:04;24.83;;;14.43;;
2177;SDS011;1095;50.992;6.798;2023-12-04T11:27:32;21.20;;;14.15;;
2177;SDS011;1095;50.992;6.798;2023-12-04T11:30:00;23.60;;;14.63;;
2177;SDS011;1095;50.992;6.798;2023-12-04T11:32:28;23.48;;;13.85;;
2177;SDS011;1095;50.992;6.798;2023-12-04T11:34:56;25.92;;;13.98;;
2177;SDS011;1095;50.992;6.798;2023-12-04T11:37:27;23.98;;;13.85;;
2177;SDS011;1095;50.992;6.798;2023-12-04T11:39:55;23.02;;;14.52;;
2177;SDS011;1095;50.992;6.798;2023-12-04T11:42:24;27.33;;;15.73;;
2177;SDS011;1095;50.992;6.798;2023-12-04T11:44:55;23.05;;;14.27;;
2177;SDS011;1095;50.992;6.798;2023-12-04T11:47:23;29.50;;;16.13;;
2177;SDS011;1095;50.992;6.798;2023-12-04T11:49:50;25.17;;;15.18;;
2177;SDS011;1095;50.992;6.798;2023-12-04T11:52:17;26.30;;;15.70;;
2177;SDS011;1095;50.992;6.798;2023-12-04T11:55:00;25.73;;;15.18;;
2177;SDS011;1095;50.992;6.798;2023-12-04T11:57:32;26.17;;;15.00;;
2177;SDS011;1095;50.992;6.798;2023-12-04T12:00:08;26.27;;;15.82;;
2177;SDS011;1095;50.992;6.798;2023-12-04T12:02:37;33.92;;;15.65;;
2177;SDS011;1095;50.992;6.798;2023-12-04T12:05:05;25.98;;;16.27;;
2177;SDS011;1095;50.992;6.798;2023-12-04T12:07:32;28.02;;;15.68;;
2177;SDS011;1095;50.992;6.798;2023-12-04T12:10:01;27.42;;;16.25;;
2177;SDS011;1095;50.992;6.798;2023-12-04T12:12:28;28.33;;;16.42;;
2177;SDS011;1095;50.992;6.798;2023-12-04T12:14:55;26.20;;;15.15;;
2177;SDS011;1095;50.992;6.798;2023-12-04T12:17:21;28.98;;;15.52;;
2177;SDS011;1095;50.992;6.798;2023-12-04T12:19:48;27.50;;;15.82;;
2177;SDS011;1095;50.992;6.798;2023-12-04T12:22:15;32.55;;;16.15;;
2177;SDS011;1095;50.992;6.798;2023-12-04T12:24:41;32.88;;;16.38;;
2177;SDS011;1095;50.992;6.798;2023-12-04T12:27:09;30.27;;;17.25;;
2177;SDS011;1095;50.992;6.798;2023-12-04T12:29:36;34.30;;;16.25;;
2177;SDS011;1095;50.992;6.798;2023-12-04T12:32:03;32.10;;;16.98;;
2177;SDS011;1095;50.992;6.798;2023-12-04T12:34:30;29.33;;;16.95;;
2177;SDS011;1095;50.992;6.798;2023-12-04T12:37:00;34.45;;;18.13;;
2177;SDS011;1095;50.992;6.798;2023-12-04T12:39:31;31.02;;;18.17;;
2177;SDS011;1095;50.992;6.798;2023-12-04T12:41:58;30.70;;;17.58;;
2177;SDS011;1095;50.992;6.798;2023-12-04T12:44:25;27.60;;;16.98;;
2177;SDS011;1095;50.992;6.798;2023-12-04T12:46:53;28.60;;;17.20;;
2177;SDS011;1095;50.992;6.798;2023-12-04T12:49:20;32.83;;;17.67;;
2177;SDS011;1095;50.992;6.798;2023-12-04T12:51:46;31.48;;;17.67;;
2177;SDS011;1095;50.992;6.798;2023-12-04T12:54:13;30.75;;;17.05;;
2177;SDS011;1095;50.992;6.798;2023-12-04T12:56:40;33.75;;;17.67;;
2177;SDS011;1095;50.992;6.798;2023-12-04T12:59:06;29.08;;;17.73;;
2177;SDS011;1095;50.992;6.798;2023-12-04T13:01:34;30.58;;;17.35;;
2177;SDS011;1095;50.992;6.798;2023-12-04T13:04:01;26.73;;;15.50;;
2177;SDS011;1095;50.992;6.798;2023-12-04T13:06:28;28.27;;;16.48;;
2177;SDS011;1095;50.992;6.798;2023-12-04T13:08:55;45.05;;;21.35;;
2177;SDS011;1095;50.992;6.798;2023-12-04T13:11:21;26.17;;;16.20;;
2177;SDS011;1095;50.992;6.798;2023-12-04T13:13:48;28.50;;;15.50;;
2177;SDS011;1095;50.992;6.798;2023-12-04T13:16:15;26.65;;;16.00;;
2177;SDS011;1095;50.992;6.798;2023-12-04T13:18:43;27.23;;;15.60;;
2177;SDS011;1095;50.992;6.798;2023-12-04T13:21:09;31.75;;;15.32;;
2177;SDS011;1095;50.992;6.798;2023-12-04T13:23:36;23.58;;;14.20;;
2177;SDS011;1095;50.992;6.798;2023-12-04T13:26:03;29.48;;;15.88;;
2177;SDS011;1095;50.992;6.798;2023-12-04T13:28:30;26.02;;;15.07;;
2177;SDS011;1095;50.992;6.798;2023-12-04T13:30:56;25.73;;;15.27;;
2177;SDS011;1095;50.992;6.798;2023-12-04T13:33:23;26.77;;;14.65;;
2177;SDS011;1095;50.992;6.798;2023-12-04T13:35:53;25.52;;;14.70;;
2177;SDS011;1095;50.992;6.798;2023-12-04T13:38:20;26.30;;;15.73;;
2177;SDS011;1095;50.992;6.798;2023-12-04T13:40:47;27.55;;;14.80;;
2177;SDS011;1095;50.992;6.798;2023-12-04T13:43:25;21.92;;;13.18;;
2177;SDS011;1095;50.992;6.798;2023-12-04T13:46:09;26.08;;;15.43;;
2177;SDS011;1095;50.992;6.798;2023-12-04T13:48:38;29.63;;;15.52;;
2177;SDS011;1095;50.992;6.798;2023-12-04T13:51:08;25.77;;;15.25;;
2177;SDS011;1095;50.992;6.798;2023-12-04T13:53:36;27.83;;;14.85;;
2177;SDS011;1095;50.992;6.798;2023-12-04T13:56:04;24.02;;;14.80;;
2177;SDS011;1095;50.992;6.798;2023-12-04T13:58:50;25.02;;;14.90;;
2177;SDS011;1095;50.992;6.798;2023-12-04T14:01:21;23.77;;;13.77;;
2177;SDS011;1095;50.992;6.798;2023-12-04T14:03:49;23.65;;;14.25;;
2177;SDS011;1095;50.992;6.798;2023-12-04T14:06:29;24.70;;;14.57;;
2177;SDS011;1095;50.992;6.798;2023-12-04T14:08:56;24.15;;;13.18;;
2177;SDS011;1095;50.992;6.798;2023-12-04T14:11:23;22.88;;;13.60;;
2177;SDS011;1095;50.992;6.798;2023-12-04T14:13:50;22.60;;;13.43;;
2177;SDS011;1095;50.992;6.798;2023-12-04T14:16:17;22.90;;;13.55;;
2177;SDS011;1095;50.992;6.798;2023-12-04T14:18:44;24.15;;;14.45;;
2177;SDS011;1095;50.992;6.798;2023-12-04T14:21:11;22.02;;;13.02;;
2177;SDS011;1095;50.992;6.798;2023-12-04T14:23:39;24.58;;;13.32;;
2177;SDS011;1095;50.992;6.798;2023-12-04T14:26:06;24.23;;;13.43;;
2177;SDS011;1095;50.992;6.798;2023-12-04T14:28:32;22.35;;;12.98;;
2177;SDS011;1095;50.992;6.798;2023-12-04T14:30:59;20.50;;;12.73;;
2177;SDS011;1095;50.992;6.798;2023-12-04T14:33:26;22.08;;;12.48;;
2177;SDS011;1095;50.992;6.798;2023-12-04T14:35:52;20.50;;;13.02;;
2177;SDS011;1095;50.992;6.798;2023-12-04T14:38:19;22.35;;;13.63;;
2177;SDS011;1095;50.992;6.798;2023-12-04T14:40:49;20.25;;;12.40;;
2177;SDS011;1095;50.992;6.798;2023-12-04T14:43:16;19.92;;;12.93;;
2177;SDS011;1095;50.992;6.798;2023-12-04T14:45:42;20.75;;;13.18;;
2177;SDS011;1095;50.992;6.798;2023-12-04T14:48:09;21.40;;;13.00;;
2177;SDS011;1095;50.992;6.798;2023-12-04T14:50:36;20.38;;;13.15;;
2177;SDS011;1095;50.992;6.798;2023-12-04T14:53:04;24.70;;;13.48;;
2177;SDS011;1095;50.992;6.798;2023-12-04T14:55:41;20.52;;;12.98;;